Time;durP1;ratioP1;P1;durP2;ratioP2;P2;SDS_P1;SDS_P2;PMS_P1;PMS_P2;Temp;Humidity;BMP_temperature;BMP_pressure;BME280_temperature;BME280_humidity;BME280_pressure;Samples;Min_cycle;Max_cycle;Signal;HPM_P1;HPM_P2
2024/03/03 00:03:00;;;;;;;38.07;26.57;;;;;;;5.91;100.00;96772.25;6315101;28;20528;-52
2024/03/03 00:06:05;;;;;;;37.17;26.13;;;;;;;5.89;100.00;96771.63;6313025;28;20221;-52
2024/03/03 00:09:08;;;;;;;40.67;26.90;;;;;;;5.82;100.00;96762.25;6317799;28;20217;-53
2024/03/03 00:12:11;;;;;;;43.17;26.40;;;;;;;5.74;100.00;96766.03;6305167;28;20791;-52
2024/03/03 00:15:14;;;;;;;43.53;27.63;;;;;;;5.55;100.00;96769.84;6300044;28;20204;-51
2024/03/03 00:18:16;;;;;;;42.33;27.17;;;;;;;5.54;100.00;96761.13;6308136;28;20323;-54
2024/03/03 00:21:18;;;;;;;39.37;26.10;;;;;;;5.51;100.00;96764.22;6305571;28;20761;-53
2024/03/03 00:24:20;;;;;;;44.83;27.27;;;;;;;5.45;100.00;96767.81;6306507;28;20663;-47
2024/03/03 00:27:23;;;;;;;39.00;26.10;;;;;;;5.34;100.00;96760.69;6310770;28;20267;-50
2024/03/03 00:30:25;;;;;;;48.40;28.00;;;;;;;5.22;100.00;96758.06;6314952;28;20204;-54
2024/03/03 00:33:27;;;;;;;38.23;25.17;;;;;;;5.18;100.00;96757.72;6317014;28;20223;-52
2024/03/03 00:36:29;;;;;;;41.67;26.80;;;;;;;5.26;100.00;96751.28;6298747;28;20195;-52
2024/03/03 00:39:32;;;;;;;35.30;24.53;;;;;;;5.10;100.00;96738.78;6292255;28;20208;-53
2024/03/03 00:42:34;;;;;;;41.03;25.57;;;;;;;5.10;100.00;96734.28;6305025;28;20237;-51
2024/03/03 00:45:36;;;;;;;36.87;24.33;;;;;;;5.10;100.00;96739.56;6299966;28;20724;-52
2024/03/03 00:48:39;;;;;;;36.20;24.27;;;;;;;5.01;100.00;96727.75;6306552;28;20287;-52
2024/03/03 00:51:41;;;;;;;33.60;22.30;;;;;;;4.89;100.00;96727.75;6289092;28;20615;-51
2024/03/03 00:54:43;;;;;;;31.77;21.83;;;;;;;4.84;100.00;96725.00;6287466;28;20871;-53
2024/03/03 00:57:45;;;;;;;35.27;23.30;;;;;;;4.78;100.00;96731.19;6279032;28;20204;-51
2024/03/03 01:00:47;;;;;;;35.47;23.27;;;;;;;4.74;100.00;96713.41;6277563;28;20223;-50
2024/03/03 01:03:49;;;;;;;36.83;24.13;;;;;;;4.66;100.00;96719.81;6320356;28;20204;-51
2024/03/03 01:06:52;;;;;;;33.93;22.47;;;;;;;4.54;100.00;96701.34;6297299;28;20273;-48
2024/03/03 01:09:54;;;;;;;36.63;24.03;;;;;;;4.64;100.00;96714.78;6308360;28;20287;-52
2024/03/03 01:12:56;;;;;;;39.57;25.33;;;;;;;4.62;100.00;96711.53;6305563;28;20693;-50
2024/03/03 01:15:58;;;;;;;35.70;23.37;;;;;;;4.58;100.00;96710.41;6310982;28;20189;-49
2024/03/03 01:19:00;;;;;;;37.70;24.07;;;;;;;4.56;100.00;96709.03;6292749;28;20342;-49
2024/03/03 01:22:03;;;;;;;37.30;24.30;;;;;;;4.53;100.00;96704.19;6305803;28;20561;-49
2024/03/03 01:25:07;;;;;;;33.40;22.83;;;;;;;4.50;100.00;96697.56;6302052;28;20230;-51
2024/03/03 01:28:09;;;;;;;31.33;23.10;;;;;;;4.52;100.00;96697.31;6320716;28;20596;-52
2024/03/03 01:31:12;;;;;;;31.90;22.27;;;;;;;4.57;100.00;96684.25;6318724;28;20199;-50
2024/03/03 01:34:15;;;;;;;34.03;21.70;;;;;;;4.47;100.00;96684.81;6308027;28;20195;-50
2024/03/03 01:37:20;;;;;;;34.13;23.20;;;;;;;4.49;100.00;96660.88;6307956;28;20693;-48
2024/03/03 01:40:22;;;;;;;37.87;24.67;;;;;;;4.64;100.00;96683.13;6309598;28;20204;-54
2024/03/03 01:43:24;;;;;;;41.30;26.00;;;;;;;4.55;100.00;96670.50;6308949;28;20314;-50
2024/03/03 01:46:27;;;;;;;38.83;23.73;;;;;;;4.41;100.00;96654.09;6308442;28;20237;-52
2024/03/03 01:49:31;;;;;;;39.53;24.60;;;;;;;4.45;100.00;96663.16;6304349;28;20246;-50
2024/03/03 01:52:36;;;;;;;32.63;22.40;;;;;;;4.59;100.00;96659.28;6282868;28;20205;-50
2024/03/03 01:55:40;;;;;;;32.13;21.73;;;;;;;4.45;100.00;96662.34;6308785;28;20252;-50
2024/03/03 01:58:46;;;;;;;38.37;24.07;;;;;;;4.31;100.00;96656.47;6301072;28;20206;-49
2024/03/03 02:01:49;;;;;;;36.10;22.23;;;;;;;4.24;100.00;96645.25;6317038;28;20187;-50
2024/03/03 02:04:51;;;;;;;31.93;20.50;;;;;;;4.20;100.00;96644.88;6311125;28;20211;-49
2024/03/03 02:07:54;;;;;;;32.47;21.47;;;;;;;4.10;100.00;96655.19;6310072;28;20198;-47
2024/03/03 02:10:56;;;;;;;32.77;20.80;;;;;;;4.08;100.00;96659.84;6301691;28;20193;-54
2024/03/03 02:13:59;;;;;;;32.43;20.07;;;;;;;3.95;100.00;96660.06;6309409;28;20196;-49
2024/03/03 02:17:01;;;;;;;34.67;20.00;;;;;;;3.85;100.00;96655.34;6304606;28;20190;-50
2024/03/03 02:20:04;;;;;;;30.90;19.00;;;;;;;3.80;100.00;96644.69;6296364;28;20200;-52
2024/03/03 02:23:06;;;;;;;31.13;19.50;;;;;;;3.60;100.00;96616.78;6318218;28;20202;-52
2024/03/03 02:26:09;;;;;;;27.43;18.37;;;;;;;3.80;100.00;96649.94;6301878;28;20218;-49
2024/03/03 02:29:11;;;;;;;30.60;18.20;;;;;;;3.69;100.00;96640.16;6306814;28;20581;-50
2024/03/03 02:32:14;;;;;;;26.60;17.80;;;;;;;3.70;100.00;96639.94;6289999;28;20281;-50
2024/03/03 02:35:16;;;;;;;28.07;17.73;;;;;;;3.77;100.00;96634.56;6309065;28;20380;-52
2024/03/03 02:38:18;;;;;;;27.67;18.73;;;;;;;3.78;100.00;96638.81;6308602;28;20183;-52
2024/03/03 02:41:20;;;;;;;27.57;17.90;;;;;;;3.85;100.00;96632.44;6306324;28;20227;-50
2024/03/03 02:44:22;;;;;;;29.93;17.93;;;;;;;3.87;100.00;96629.56;6313743;28;20190;-53
2024/03/03 02:47:24;;;;;;;29.43;18.00;;;;;;;3.83;100.00;96634.47;6315495;28;20219;-52
2024/03/03 02:50:27;;;;;;;27.47;17.17;;;;;;;3.80;100.00;96631.50;6297203;28;20190;-54
2024/03/03 02:53:29;;;;;;;25.53;16.47;;;;;;;3.69;100.00;96630.41;6291591;28;20198;-52
2024/03/03 02:56:31;;;;;;;23.33;16.43;;;;;;;3.69;100.00;96622.50;6312777;28;20190;-51
2024/03/03 02:59:33;;;;;;;26.50;15.80;;;;;;;3.66;100.00;96617.72;6292448;28;20683;-50
2024/03/03 03:02:35;;;;;;;26.83;17.03;;;;;;;3.60;100.00;96616.78;6308713;28;20199;-49
2024/03/03 03:05:37;;;;;;;25.47;15.47;;;;;;;3.53;100.00;96612.63;6287576;28;20227;-49
2024/03/03 03:08:39;;;;;;;24.63;16.67;;;;;;;3.43;100.00;96610.50;6309799;28;20203;-49
2024/03/03 03:11:42;;;;;;;23.17;15.67;;;;;;;3.54;100.00;96608.94;6308616;28;20694;-53
2024/03/03 03:14:44;;;;;;;23.07;14.83;;;;;;;3.50;100.00;96597.28;6293994;28;20205;-47
2024/03/03 03:17:46;;;;;;;25.50;15.60;;;;;;;3.48;100.00;96568.53;6313100;28;20190;-53
2024/03/03 03:20:49;;;;;;;21.50;13.33;;;;;;;3.43;100.00;96589.44;6316053;28;20198;-49
2024/03/03 03:23:51;;;;;;;23.43;14.73;;;;;;;3.32;100.00;96580.50;6305444;28;20183;-51
2024/03/03 03:26:53;;;;;;;27.20;15.70;;;;;;;3.49;100.00;96578.03;6295856;28;20207;-52
2024/03/03 03:29:55;;;;;;;24.33;14.93;;;;;;;3.56;100.00;96581.38;6310017;28;20360;-49
2024/03/03 03:32:57;;;;;;;27.17;16.87;;;;;;;3.63;100.00;96584.72;6307401;28;20204;-54
2024/03/03 03:36:00;;;;;;;32.40;17.80;;;;;;;3.64;100.00;96580.25;6308706;28;20190;-51
2024/03/03 03:39:10;;;;;;;24.17;14.80;;;;;;;3.59;100.00;96580.13;6295367;28;20579;-53
2024/03/03 03:42:12;;;;;;;26.40;16.63;;;;;;;3.58;100.00;96579.31;6307766;28;20216;-52
2024/03/03 03:45:14;;;;;;;27.07;16.03;;;;;;;3.55;100.00;96579.78;6317110;28;20668;-51
2024/03/03 03:48:16;;;;;;;25.87;15.73;;;;;;;3.54;100.00;96574.72;6300830;28;20332;-53
2024/03/03 03:51:18;;;;;;;24.00;15.07;;;;;;;3.53;100.00;96567.84;6300652;28;20704;-51
2024/03/03 03:54:21;;;;;;;24.60;15.33;;;;;;;3.54;100.00;96561.56;6308593;28;20286;-51
2024/03/03 03:57:23;;;;;;;30.23;16.67;;;;;;;3.67;100.00;96565.84;6305536;28;20217;-51
2024/03/03 04:00:25;;;;;;;32.63;18.10;;;;;;;3.86;100.00;96575.28;6305727;28;20278;-52
2024/03/03 04:03:27;;;;;;;27.97;15.00;;;;;;;3.69;100.00;96575.09;6305877;28;20967;-52
2024/03/03 04:06:30;;;;;;;32.00;18.90;;;;;;;3.72;100.00;96585.19;6307105;28;20602;-52
2024/03/03 04:09:32;;;;;;;27.40;16.63;;;;;;;3.85;100.00;96584.22;6313484;28;20332;-49
2024/03/03 04:12:34;;;;;;;23.73;15.50;;;;;;;3.58;100.00;96552.19;6300271;28;20658;-52
2024/03/03 04:15:36;;;;;;;31.93;18.60;;;;;;;3.77;100.00;96589.81;6297818;28;20571;-54
2024/03/03 04:18:38;;;;;;;26.47;17.03;;;;;;;3.84;100.00;96586.06;6303440;28;20201;-54
2024/03/03 04:21:41;;;;;;;27.50;16.20;;;;;;;3.67;100.00;96574.53;6312662;28;20872;-52
2024/03/03 04:24:44;;;;;;;29.87;16.30;;;;;;;3.85;100.00;96576.31;6303844;28;20198;-51
2024/03/03 04:27:46;;;;;;;24.60;14.37;;;;;;;3.68;100.00;96575.34;6305081;28;20293;-53
2024/03/03 04:30:48;;;;;;;22.80;14.50;;;;;;;3.66;100.00;96578.22;6286390;28;20230;-50
2024/03/03 04:33:50;;;;;;;23.80;14.13;;;;;;;3.67;100.00;96568.47;6300828;28;20247;-50
2024/03/03 04:36:52;;;;;;;24.30;13.83;;;;;;;3.54;100.00;96575.53;6310070;28;20883;-50
2024/03/03 04:39:54;;;;;;;18.73;12.33;;;;;;;3.43;100.00;96564.97;6310558;28;20190;-50
2024/03/03 04:42:57;;;;;;;17.23;12.10;;;;;;;3.35;100.00;96551.09;6309547;28;20630;-51
2024/03/03 04:45:59;;;;;;;20.47;12.97;;;;;;;3.23;100.00;96559.97;6297474;28;20207;-52
2024/03/03 04:49:01;;;;;;;17.33;10.73;;;;;;;3.09;100.00;96528.56;6301443;28;20190;-47
2024/03/03 04:52:03;;;;;;;16.33;10.60;;;;;;;3.19;100.00;96561.44;6309429;28;20789;-53
2024/03/03 04:55:06;;;;;;;15.97;10.87;;;;;;;3.34;100.00;96556.56;6304754;28;20695;-54
2024/03/03 04:58:09;;;;;;;19.20;12.10;;;;;;;3.08;100.00;96548.00;6307794;28;20205;-51
2024/03/03 05:01:11;;;;;;;18.50;10.50;;;;;;;2.94;100.00;96551.81;6310202;28;20235;-52
2024/03/03 05:04:13;;;;;;;17.90;11.50;;;;;;;3.00;100.00;96560.66;6312502;28;20777;-51
2024/03/03 05:07:16;;;;;;;19.50;11.47;;;;;;;3.05;100.00;96561.63;6313722;28;20198;-49
2024/03/03 05:10:18;;;;;;;23.60;13.27;;;;;;;2.99;100.00;96556.41;6304119;28;20275;-52
2024/03/03 05:13:21;;;;;;;18.20;12.33;;;;;;;2.96;100.00;96559.50;6309213;28;20193;-53
2024/03/03 05:16:23;;;;;;;18.77;11.57;;;;;;;3.04;100.00;96559.19;6298087;28;20191;-53
2024/03/03 05:19:25;;;;;;;19.13;11.93;;;;;;;2.98;100.00;96552.19;6301329;28;20205;-51
2024/03/03 05:22:27;;;;;;;18.03;11.67;;;;;;;2.89;100.00;96556.13;6304011;28;20719;-53
2024/03/03 05:25:29;;;;;;;16.60;11.70;;;;;;;2.83;100.00;96556.00;6306156;28;20203;-52
2024/03/03 05:28:32;;;;;;;17.77;11.30;;;;;;;2.80;100.00;96561.69;6308793;28;20195;-51
2024/03/03 05:31:40;;;;;;;17.40;11.43;;;;;;;2.72;100.00;96553.31;6312269;28;20201;-53
2024/03/03 05:34:42;;;;;;;15.67;10.03;;;;;;;2.67;100.00;96563.69;6301617;28;20208;-51
2024/03/03 05:37:44;;;;;;;16.70;10.53;;;;;;;2.70;100.00;96569.28;6310365;28;20191;-50
2024/03/03 05:40:47;;;;;;;18.10;11.00;;;;;;;2.70;100.00;96565.84;6310999;28;20190;-51
2024/03/03 05:43:49;;;;;;;17.07;10.70;;;;;;;2.86;100.00;96570.53;6324791;28;20200;-50
2024/03/03 05:46:51;;;;;;;12.77;8.83;;;;;;;2.69;100.00;96564.25;6333398;28;20211;-50
2024/03/03 05:49:53;;;;;;;15.37;9.70;;;;;;;2.73;100.00;96560.97;6330809;28;20563;-50
2024/03/03 05:52:55;;;;;;;14.50;8.83;;;;;;;2.73;100.00;96570.69;6333287;28;20200;-51
2024/03/03 05:55:57;;;;;;;14.50;9.50;;;;;;;2.81;100.00;96567.78;6333137;28;20275;-52
2024/03/03 05:58:59;;;;;;;14.07;9.57;;;;;;;2.66;100.00;96568.13;6328641;28;20207;-53
2024/03/03 06:02:01;;;;;;;15.37;8.67;;;;;;;2.83;100.00;96574.41;6339133;28;20198;-50
2024/03/03 06:05:04;;;;;;;12.73;9.00;;;;;;;2.75;100.00;96572.06;6336601;28;20294;-52
2024/03/03 06:08:06;;;;;;;14.07;9.33;;;;;;;2.81;100.00;96570.41;6343625;28;20203;-54
2024/03/03 06:11:08;;;;;;;14.77;9.27;;;;;;;2.75;100.00;96566.81;6341396;28;20585;-51
2024/03/03 06:14:14;;;;;;;12.87;9.27;;;;;;;2.81;100.00;96550.16;6331467;28;20320;-52
2024/03/03 06:17:16;;;;;;;14.13;9.03;;;;;;;2.92;100.00;96569.66;6314201;28;20199;-53
2024/03/03 06:20:18;;;;;;;15.40;10.00;;;;;;;2.91;100.00;96564.63;6334685;28;20208;-52
2024/03/03 06:23:21;;;;;;;14.47;9.57;;;;;;;3.06;100.00;96567.69;6332893;28;20196;-52
2024/03/03 06:26:30;;;;;;;13.23;9.47;;;;;;;2.91;100.00;96568.06;6334680;28;20212;-50
2024/03/03 06:29:34;;;;;;;12.20;8.77;;;;;;;3.18;100.00;96568.53;6344907;27;20196;-52
2024/03/03 06:32:36;;;;;;;13.83;8.70;;;;;;;3.12;100.00;96565.97;6341884;28;20330;-52
2024/03/03 06:35:39;;;;;;;14.47;9.70;;;;;;;2.97;100.00;96561.91;6340405;28;20203;-52
2024/03/03 06:38:41;;;;;;;13.67;9.47;;;;;;;3.06;100.00;96559.78;6340591;28;20216;-54
2024/03/03 06:41:46;;;;;;;13.43;8.67;;;;;;;3.07;100.00;96556.13;6329047;28;20240;-51
2024/03/03 06:44:48;;;;;;;13.30;8.73;;;;;;;3.26;100.00;96567.44;6315861;28;20661;-53
2024/03/03 06:47:50;;;;;;;14.47;8.97;;;;;;;3.28;100.00;96558.28;6334777;28;20705;-50
2024/03/03 06:50:53;;;;;;;15.13;8.93;;;;;;;3.43;100.00;96557.06;6336757;28;20702;-49
2024/03/03 06:53:55;;;;;;;12.80;8.10;;;;;;;3.37;100.00;96545.59;6329176;28;20679;-53
2024/03/03 06:56:57;;;;;;;15.37;9.17;;;;;;;3.52;100.00;96553.09;6329431;28;20189;-53
2024/03/03 07:00:00;;;;;;;14.40;9.47;;;;;;;3.53;100.00;96554.69;6344354;28;20672;-53
2024/03/03 07:06:10;;;;;;;11.70;8.53;;;;;;;3.72;100.00;96550.16;6327074;28;20584;-50
2024/03/03 07:09:12;;;;;;;14.00;8.03;;;;;;;3.90;100.00;96559.84;6336239;28;20193;-52
2024/03/03 07:12:14;;;;;;;10.57;7.77;;;;;;;4.16;100.00;96551.47;6332538;28;20198;-50
2024/03/03 07:15:17;;;;;;;12.00;7.63;;;;;;;4.26;100.00;96546.44;6325228;28;20240;-49
2024/03/03 07:18:19;;;;;;;11.97;7.13;;;;;;;4.41;100.00;96543.34;6333073;28;20682;-51
2024/03/03 07:21:21;;;;;;;11.43;7.20;;;;;;;4.53;100.00;96548.59;6314837;28;20203;-52
2024/03/03 07:24:24;;;;;;;9.33;5.50;;;;;;;4.79;100.00;96558.66;6327516;28;20801;-52
2024/03/03 07:27:26;;;;;;;7.20;5.57;;;;;;;4.76;100.00;96555.69;6335226;28;20686;-53
2024/03/03 07:30:28;;;;;;;6.93;5.87;;;;;;;4.84;100.00;96552.69;6321949;28;20202;-52
2024/03/03 07:33:31;;;;;;;6.37;5.10;;;;;;;5.17;100.00;96555.47;6314101;28;20700;-53
2024/03/03 07:36:34;;;;;;;8.87;5.43;;;;;;;5.13;100.00;96562.25;6325687;28;20179;-52
2024/03/03 07:39:36;;;;;;;8.07;5.07;;;;;;;5.61;100.00;96558.38;6313511;28;20207;-54
2024/03/03 07:42:38;;;;;;;5.50;4.30;;;;;;;5.44;100.00;96550.41;6330239;28;20243;-48
2024/03/03 07:45:40;;;;;;;5.93;3.70;;;;;;;5.70;100.00;96553.50;6330502;28;20663;-50
2024/03/03 07:48:44;;;;;;;4.93;3.63;;;;;;;5.66;100.00;96560.31;6337619;28;20276;-50
2024/03/03 07:51:47;;;;;;;5.27;3.63;;;;;;;5.82;100.00;96556.09;6335962;28;20270;-54
2024/03/03 07:54:49;;;;;;;5.20;3.47;;;;;;;5.82;100.00;96562.19;6322599;28;20688;-50
2024/03/03 07:57:51;;;;;;;4.50;3.30;;;;;;;6.15;100.00;96552.69;6338349;28;20184;-51
2024/03/03 08:00:54;;;;;;;3.37;2.83;;;;;;;6.20;100.00;96558.84;6336332;28;20192;-53
2024/03/03 08:03:56;;;;;;;4.50;2.63;;;;;;;6.22;100.00;96549.88;6329323;28;20197;-53
2024/03/03 08:06:58;;;;;;;3.67;2.57;;;;;;;6.47;100.00;96558.19;6328441;28;20594;-52
2024/03/03 08:10:01;;;;;;;3.43;2.70;;;;;;;6.63;100.00;96552.06;6330518;28;20201;-53
2024/03/03 08:13:03;;;;;;;3.67;2.90;;;;;;;6.81;100.00;96536.94;6329597;28;20188;-51
2024/03/03 08:16:06;;;;;;;3.93;2.70;;;;;;;7.32;100.00;96546.28;6322236;28;20200;-51
2024/03/03 08:19:09;;;;;;;3.93;2.60;;;;;;;7.67;100.00;96547.69;6324282;28;20188;-53
2024/03/03 08:22:11;;;;;;;3.07;2.40;;;;;;;8.02;100.00;96549.84;6320137;28;20285;-50
2024/03/03 08:25:14;;;;;;;3.40;2.43;;;;;;;8.25;100.00;96540.75;6318123;28;20209;-52
2024/03/03 08:28:16;;;;;;;2.17;1.97;;;;;;;8.53;100.00;96542.28;6324571;28;20242;-52
2024/03/03 08:31:18;;;;;;;2.90;2.30;;;;;;;8.75;100.00;96555.41;6326224;28;20192;-50
2024/03/03 08:34:21;;;;;;;3.90;2.40;;;;;;;8.90;100.00;96555.50;6330390;28;20682;-53
2024/03/03 08:37:23;;;;;;;3.40;2.50;;;;;;;9.11;100.00;96531.66;6326891;28;20660;-51
2024/03/03 08:40:26;;;;;;;4.37;2.33;;;;;;;9.43;100.00;96545.59;6328895;28;20188;-51
2024/03/03 08:43:29;;;;;;;2.10;1.80;;;;;;;9.50;100.00;96545.34;6328052;28;20237;-49
2024/03/03 08:46:31;;;;;;;2.40;2.07;;;;;;;9.77;100.00;96539.81;6322793;28;20207;-51
2024/03/03 08:49:33;;;;;;;2.00;1.50;;;;;;;10.00;99.88;96549.94;6315138;28;20262;-54
2024/03/03 08:52:36;;;;;;;2.90;2.10;;;;;;;10.24;97.44;96546.75;6330061;28;20200;-56
2024/03/03 08:55:39;;;;;;;3.57;2.13;;;;;;;10.46;96.79;96547.28;6333528;28;20200;-56
2024/03/03 08:58:41;;;;;;;2.50;1.93;;;;;;;10.70;95.08;96544.84;6333615;28;20199;-49
2024/03/03 09:01:46;;;;;;;1.90;1.50;;;;;;;11.06;93.88;96550.06;6328041;28;20196;-55
2024/03/03 09:04:49;;;;;;;1.70;1.60;;;;;;;11.28;91.19;96555.84;6327775;28;20273;-54
2024/03/03 09:07:53;;;;;;;1.57;1.40;;;;;;;11.56;85.33;96551.69;6328726;28;20212;-53
2024/03/03 09:11:01;;;;;;;1.90;1.40;;;;;;;11.80;87.59;96554.50;6334752;28;20342;-55
2024/03/03 09:14:03;;;;;;;1.37;1.27;;;;;;;11.91;78.65;96543.78;6337494;28;20218;-54
2024/03/03 09:17:06;;;;;;;1.63;1.40;;;;;;;11.97;76.78;96534.66;6329851;28;20197;-53
2024/03/03 09:20:09;;;;;;;2.50;1.50;;;;;;;12.16;79.76;96548.91;6328634;28;20190;-55
2024/03/03 09:23:11;;;;;;;2.23;1.50;;;;;;;12.19;79.77;96552.91;6334658;28;20805;-55
2024/03/03 09:26:14;;;;;;;2.07;1.50;;;;;;;12.36;80.55;96547.94;6338899;28;20203;-56
2024/03/03 09:29:16;;;;;;;2.47;1.50;;;;;;;12.60;74.54;96548.00;6331681;28;20272;-53
2024/03/03 09:32:20;;;;;;;2.07;1.30;;;;;;;12.64;70.70;96536.47;6335110;28;20656;-55
2024/03/03 09:35:23;;;;;;;1.13;1.03;;;;;;;12.73;75.73;96535.84;6335167;28;20197;-53
2024/03/03 09:38:25;;;;;;;1.70;1.37;;;;;;;12.83;68.96;96535.75;6334934;28;20981;-55
2024/03/03 09:41:27;;;;;;;1.67;1.20;;;;;;;13.10;68.21;96533.31;6327702;28;20229;-52
2024/03/03 09:44:36;;;;;;;2.43;1.40;;;;;;;13.29;69.78;96527.19;6315408;28;20188;-54
2024/03/03 09:47:39;;;;;;;1.20;1.10;;;;;;;13.41;69.34;96517.69;6328154;28;20475;-51
2024/03/03 09:50:48;;;;;;;1.10;1.00;;;;;;;13.78;67.57;96523.31;6315730;28;20214;-55
2024/03/03 09:53:53;;;;;;;1.60;1.20;;;;;;;13.94;64.83;96514.78;6336715;28;20521;-46
2024/03/03 09:56:58;;;;;;;0.93;0.90;;;;;;;14.09;65.95;96523.66;6336455;28;20722;-53
2024/03/03 10:00:01;;;;;;;1.20;1.10;;;;;;;14.36;58.91;96522.94;6331327;28;20209;-54
2024/03/03 10:03:20;;;;;;;1.93;0.83;;;;;;;14.50;60.17;96509.59;6329916;28;20202;-53
2024/03/03 10:06:24;;;;;;;1.50;0.90;;;;;;;14.46;53.69;96509.38;6337682;28;20194;-56
2024/03/03 10:09:29;;;;;;;1.37;1.00;;;;;;;14.53;56.71;96525.91;6328116;28;20190;-55
2024/03/03 10:12:33;;;;;;;1.17;0.70;;;;;;;14.44;54.86;96485.56;6330455;28;20196;-50
2024/03/03 10:15:36;;;;;;;1.53;1.00;;;;;;;14.81;54.66;96515.97;6327221;28;20194;-51
2024/03/03 10:18:38;;;;;;;0.60;0.60;;;;;;;15.00;56.11;96520.47;6325705;28;20201;-51
2024/03/03 10:21:40;;;;;;;6.03;1.00;;;;;;;15.04;56.02;96511.53;6331977;28;20200;-53
2024/03/03 10:24:43;;;;;;;0.80;0.70;;;;;;;15.16;53.25;96503.75;6314283;28;20668;-54
2024/03/03 10:27:47;;;;;;;0.70;0.70;;;;;;;15.28;52.88;96513.19;6330546;28;20205;-54
2024/03/03 10:30:49;;;;;;;0.80;0.80;;;;;;;15.21;50.42;96506.31;6332337;28;20196;-54
2024/03/03 10:33:53;;;;;;;1.03;0.80;;;;;;;15.11;51.10;96506.53;6334097;28;20333;-52
2024/03/03 10:37:03;;;;;;;2.07;0.80;;;;;;;15.17;53.37;96508.06;6335382;28;20272;-53
2024/03/03 10:40:12;;;;;;;0.93;0.70;;;;;;;15.46;50.15;96504.19;6340538;28;20296;-51
2024/03/03 10:43:17;;;;;;;1.80;0.70;;;;;;;15.59;49.47;96500.69;6327449;28;20715;-53
2024/03/03 10:46:20;;;;;;;1.37;0.83;;;;;;;15.69;50.35;96505.88;6338496;28;20306;-54
2024/03/03 10:49:25;;;;;;;1.00;0.80;;;;;;;15.67;51.06;96508.06;6337255;28;20322;-55
2024/03/03 10:52:30;;;;;;;1.70;0.70;;;;;;;15.71;49.24;96495.63;6329240;28;20304;-53
2024/03/03 10:55:36;;;;;;;4.00;0.90;;;;;;;15.83;48.27;96503.16;6328456;28;20209;-53
2024/03/03 10:58:41;;;;;;;1.00;0.80;;;;;;;15.78;48.28;96500.56;6317229;28;20194;-51
2024/03/03 11:01:44;;;;;;;0.70;0.63;;;;;;;15.56;49.08;96484.41;6333897;28;20197;-54
2024/03/03 11:04:46;;;;;;;0.73;0.70;;;;;;;15.45;47.91;96455.09;6336266;28;20851;-54
2024/03/03 11:07:48;;;;;;;1.00;0.80;;;;;;;15.45;49.79;96481.94;6330854;28;20237;-56
2024/03/03 11:10:57;;;;;;;1.07;0.70;;;;;;;15.58;48.65;96468.78;6331581;28;20585;-55
2024/03/03 11:14:09;;;;;;;1.07;0.90;;;;;;;15.54;48.17;96460.53;6331607;28;20564;-52
2024/03/03 11:17:22;;;;;;;1.83;0.83;;;;;;;15.54;48.33;96468.59;6328468;28;20193;-56
2024/03/03 11:20:33;;;;;;;0.90;0.80;;;;;;;15.31;49.77;96466.97;6330454;28;20205;-55
2024/03/03 11:23:47;;;;;;;1.53;0.97;;;;;;;15.43;48.57;96472.63;6331249;28;20197;-56
2024/03/03 11:27:02;;;;;;;1.87;1.00;;;;;;;15.48;48.71;96467.13;6331055;28;20193;-55
2024/03/03 11:30:08;;;;;;;1.53;0.97;;;;;;;15.38;51.28;96468.16;6331591;28;20195;-55
2024/03/03 11:33:11;;;;;;;1.37;0.90;;;;;;;15.27;51.32;96448.00;6335899;28;20344;-54
2024/03/03 11:36:14;;;;;;;0.90;0.90;;;;;;;15.40;49.96;96462.47;6319214;28;20635;-55
2024/03/03 11:39:18;;;;;;;1.50;0.90;;;;;;;15.50;49.04;96470.31;6321988;28;20568;-55
2024/03/03 11:42:37;;;;;;;1.37;1.00;;;;;;;15.52;48.68;96460.06;6328791;28;20316;-54
2024/03/03 11:45:44;;;;;;;1.57;0.90;;;;;;;15.43;49.11;96446.56;6349507;27;20706;-50
2024/03/03 11:48:57;;;;;;;1.70;0.80;;;;;;;15.56;51.35;96449.50;6328833;28;20198;-52
2024/03/03 11:51:59;;;;;;;1.53;1.07;;;;;;;15.73;50.41;96437.03;6326434;28;20255;-50
2024/03/03 11:55:02;;;;;;;1.17;0.87;;;;;;;15.91;48.81;96424.53;6331322;28;20194;-52
2024/03/03 11:58:06;;;;;;;1.00;0.70;;;;;;;16.06;48.80;96430.59;6338574;28;20185;-53
2024/03/03 12:01:11;;;;;;;1.77;0.80;;;;;;;16.20;47.51;96426.72;6332573;28;20265;-55
2024/03/03 12:04:15;;;;;;;1.10;0.70;;;;;;;16.18;47.84;96418.19;6319263;28;20200;-46
2024/03/03 12:07:19;;;;;;;2.20;0.90;;;;;;;16.21;48.48;96412.22;6324375;28;20205;-52
2024/03/03 12:10:23;;;;;;;2.83;1.17;;;;;;;16.06;48.54;96412.63;6322042;28;20200;-54
2024/03/03 12:13:25;;;;;;;1.73;1.07;;;;;;;16.29;47.26;96410.66;6328144;28;20181;-54
2024/03/03 12:16:33;;;;;;;0.87;0.80;;;;;;;16.54;46.62;96413.75;6329427;28;20194;-52
2024/03/03 12:19:36;;;;;;;1.53;0.93;;;;;;;16.54;46.14;96411.06;6328322;28;20217;-57
2024/03/03 12:22:38;;;;;;;1.90;0.90;;;;;;;16.23;46.93;96407.31;6335229;28;20197;-57
2024/03/03 12:25:41;;;;;;;3.00;0.80;;;;;;;16.47;47.28;96404.25;6320287;28;20189;-52
2024/03/03 12:28:44;;;;;;;1.33;0.83;;;;;;;16.59;45.35;96398.28;6333047;28;20203;-56
2024/03/03 12:31:46;;;;;;;0.87;0.87;;;;;;;16.57;45.48;96413.16;6327276;28;20196;-46
2024/03/03 12:34:48;;;;;;;4.77;1.13;;;;;;;16.48;45.29;96389.72;6325074;28;20193;-53
2024/03/03 12:37:51;;;;;;;2.10;0.90;;;;;;;16.43;45.80;96386.38;6327781;28;20194;-52
2024/03/03 12:40:54;;;;;;;1.67;0.90;;;;;;;16.52;44.60;96379.13;6316774;28;20193;-52
2024/03/03 12:43:56;;;;;;;1.23;0.80;;;;;;;16.56;44.76;96385.47;6329529;28;20193;-55
2024/03/03 12:46:58;;;;;;;0.77;0.77;;;;;;;16.72;45.09;96380.47;6329179;28;20200;-54
2024/03/03 12:50:00;;;;;;;1.13;0.73;;;;;;;16.67;44.74;96375.22;6324627;28;20367;-52
2024/03/03 12:53:05;;;;;;;1.43;0.70;;;;;;;16.77;43.67;96373.06;6322557;28;20343;-53
2024/03/03 12:56:21;;;;;;;1.17;0.90;;;;;;;16.79;44.62;96364.66;6331320;28;20335;-53
2024/03/03 12:59:24;;;;;;;1.37;1.00;;;;;;;16.83;43.97;96354.06;6332418;28;20715;-54
2024/03/03 13:02:27;;;;;;;2.30;0.77;;;;;;;16.67;44.01;96340.25;6323248;28;20186;-54
2024/03/03 13:05:29;;;;;;;1.03;0.63;;;;;;;16.80;43.92;96347.44;6327925;28;20194;-52
2024/03/03 13:08:36;;;;;;;3.40;0.93;;;;;;;16.89;43.82;96347.44;6335962;28;20216;-51
2024/03/03 13:11:39;;;;;;;0.90;0.63;;;;;;;16.93;43.43;96335.72;6334673;28;20691;-51
2024/03/03 13:14:43;;;;;;;1.27;0.80;;;;;;;16.96;42.55;96331.63;6321340;28;20190;-52
2024/03/03 13:18:06;;;;;;;1.57;0.80;;;;;;;16.96;41.15;96345.88;6338219;28;20193;-53
2024/03/03 13:21:15;;;;;;;0.80;0.67;;;;;;;16.96;40.47;96328.94;6340971;28;20202;-53
2024/03/03 13:24:18;;;;;;;2.10;0.93;;;;;;;16.84;41.23;96332.25;6342605;28;20205;-54
2024/03/03 13:27:24;;;;;;;0.80;0.80;;;;;;;16.82;41.17;96334.47;6329391;28;20205;-53
2024/03/03 13:30:26;;;;;;;0.97;0.80;;;;;;;16.88;40.67;96333.19;6334055;28;20246;-54
2024/03/03 13:33:36;;;;;;;1.00;0.77;;;;;;;16.90;40.39;96314.06;6334799;28;20197;-49
2024/03/03 13:36:39;;;;;;;2.10;1.00;;;;;;;16.79;40.09;96328.91;6332849;28;20660;-53
2024/03/03 13:39:41;;;;;;;1.03;0.70;;;;;;;16.69;39.72;96330.75;6333867;28;20190;-54
2024/03/03 13:42:43;;;;;;;3.07;1.00;;;;;;;16.54;40.57;96333.09;6338091;28;20233;-54
2024/03/03 13:45:46;;;;;;;2.03;1.13;;;;;;;16.42;38.92;96302.25;6327231;28;20200;-48
2024/03/03 13:48:48;;;;;;;1.57;0.70;;;;;;;16.49;39.79;96320.59;6337134;28;20206;-56
2024/03/03 13:51:50;;;;;;;0.73;0.70;;;;;;;16.40;40.24;96317.91;6321637;28;20205;-55
2024/03/03 13:54:53;;;;;;;2.03;0.90;;;;;;;16.36;40.15;96321.53;6325691;28;20198;-55
2024/03/03 13:57:55;;;;;;;1.23;0.80;;;;;;;16.34;40.19;96319.13;6334059;28;20197;-53
2024/03/03 14:00:59;;;;;;;2.07;0.77;;;;;;;16.24;39.70;96325.59;6335361;28;20335;-52
2024/03/03 14:04:07;;;;;;;0.60;0.60;;;;;;;16.24;40.05;96320.22;6334846;28;20530;-51
2024/03/03 14:07:09;;;;;;;1.37;0.70;;;;;;;16.17;39.52;96327.16;6331349;28;20682;-53
2024/03/03 14:10:11;;;;;;;1.50;0.70;;;;;;;16.09;40.14;96334.06;6319374;28;20373;-55
2024/03/03 14:13:14;;;;;;;1.90;0.80;;;;;;;16.07;40.07;96330.13;6310177;28;20249;-52
2024/03/03 14:16:16;;;;;;;0.67;0.67;;;;;;;15.91;40.89;96333.22;6331180;28;20201;-52
2024/03/03 14:19:19;;;;;;;1.27;1.00;;;;;;;15.95;40.22;96334.16;6334267;28;20610;-53